Report METAR



Share

METAR è un messaggio meteo emesso in ambito aeroportuale, ed è l'acronimo di METeorological Aerodrome Report. La figura professionale che emette il METAR è l'esperto assistenza al volo (EAV) e/o l'osservatore meteo (AMO) in servizio presso la stazione meteorologica; tale funzione può essere anche accorpata presso l'ARO (Air Traffic Services Reporting Office). Qui sotto vengono riportati i METAR dei principali aeroporti italiani.



LIRQ - Firenze/Peretola, Italy
Distanza dalla stazione: E 13km
Dati ricevuti: 30/05/2017 08:50
Nubi sparse
Nubi sparse
 Vento da Variabile
Vento: Variabile 2 km/h
Temperatura: 21°C
P.to Rugiada: 14°C
Umidità: 64%
Barometro: 1017 hPa
Nuvole: Nubi sparse
Visibilità: 10 km
Dettaglio nuvole: Nubi sparse 2134 m
2017/05/30 06:50 LIRQ 300650Z VRB01KT 9999 FEW070 21/14 Q1017
LIVC - Cimone Mountain, Italy
Distanza dalla stazione: NNO 52km
Dati ricevuti: 30/05/2017 06:55
Non operativo
Parz. nuvoloso
Parz. nuvoloso
 Vento da NNO
Vento: NNO 7 km/h
Temperatura: 10°C
Temperatura Vento: 9°C
P.to Rugiada: 9°C
Umidità: 94%
Barometro: 1025 hPa
Nuvole: Parz. nuvoloso
Visibilità: 10 km
Dettaglio nuvole: Parz. nuvoloso 61 m
2017/05/30 04:55 LIVC 300455Z 34004KT 9999 SCT002 10/09 Q1025 RMK SCT MON LIB VAL FOSCHIA VIS MIN 9999
 
LIRP - Pisa (civ/It-Afb, Italy
Distanza dalla stazione: OSO 55km
Dati ricevuti: 30/05/2017 08:45
Sereno
Sereno
 Vento da E
Vento: E 11 km/h
Temperatura: 20°C
P.to Rugiada: 18°C
Umidità: 88%
Barometro: 1017 hPa
Summary: Sereno
Visibilità: superiore a 10 km
2017/05/30 06:45 LIRP 300645Z 10006KT CAVOK 20/18 Q1017 NOSIG
LIPE - Bologna/Borgo (a, Italy
Distanza dalla stazione: NNE 82km
Dati ricevuti: 30/05/2017 08:50
Sereno
Sereno
 Vento da Variabile
Vento: Variabile 4 km/h
Temperatura: 24°C
P.to Rugiada: 15°C
Umidità: 57%
Barometro: 1016 hPa
Summary: Sereno
Visibilità: superiore a 10 km
2017/05/30 06:50 LIPE 300650Z VRB02KT CAVOK 24/15 Q1016
 
LIQW - Sarzana/Luni, Italy
Distanza dalla stazione: ONO 90km
Dati ricevuti: 30/05/2017 08:55
Sereno
Sereno
 Vento da NNO
Vento: NNO 4 km/h
Temperatura: 21°C
P.to Rugiada: 18°C
Umidità: 83%
Barometro: 1017 hPa
Summary: Sereno
Visibilità: superiore a 10 km
2017/05/30 06:55 LIQW 300655Z 33002KT CAVOK 21/18 Q1017
LIPK - Forli (civ/It-Af, Italy
Distanza dalla stazione: ENE 94km
Dati ricevuti: 29/05/2017 16:50
Non operativo
Sereno
Sereno
 Vento da E
Vento: E 19 km/h
Temperatura: 29°C
Indice di Calore: 28°C
P.to Rugiada: 14°C
Umidità: 40%
Barometro: 1015 hPa
Summary: Sereno
Visibilità: superiore a 10 km
2017/05/29 14:50 LIPK 291450Z 09010KT CAVOK 29/14 Q1015
 
LIMT - Cisa Pass, Italy
Distanza dalla stazione: NO 112km
Dati ricevuti: 29/05/2017 12:55
Non operativo
Nubi sparse
Nubi sparse
 Vento da S
Vento: S 11 km/h
Temperatura: 19°C
P.to Rugiada: 12°C
Umidità: 64%
Barometro: 1021 hPa
Nuvole: Nubi sparse
Visibilità: 10 km
Dettaglio nuvole: Nubi sparse 518 m
2017/05/29 10:55 LIMT 291055Z 18006KT 9999 FEW017 19/12 Q1021
LIPC - Cervia (it-Afb), Italy
Distanza dalla stazione: ENE 112km
Dati ricevuti: 30/05/2017 08:55
Sereno
Sereno
 Vento da calmo
Vento: Calma
Temperatura: 22°C
P.to Rugiada: 17°C
Umidità: 73%
Barometro: 1015 hPa
Summary: Sereno
Visibilità: superiore a 10 km
2017/05/30 06:55 LIPC 300655Z 00000KT CAVOK 22/17 Q1015
 
LIRS - Grosseto (it-Afb, Italy
Distanza dalla stazione: S 117km
Dati ricevuti: 30/05/2017 08:55
Sereno
Sereno
 Vento da SE
Vento: SE 2 km/h
Temperatura: 20°C
P.to Rugiada: 10°C
Umidità: 53%
Barometro: 1017 hPa
Summary: Sereno
Visibilità: superiore a 10 km
2017/05/30 06:55 LIRS 300655Z 14001KT CAVOK 20/10 Q1017
LIPF - Ferrara (aut), Italy
Distanza dalla stazione: NNE 122km
Dati ricevuti: 30/05/2017 08:55
Sereno
Sereno
 Vento da Variabile
Vento: Variabile 0 km/h
Temperatura: 22°C
P.to Rugiada: 20°C
Umidità: 88%
Barometro: 1015 hPa
Summary: Sereno
Visibilità: superiore a 10 km
2017/05/30 06:55 LIPF 300655Z /////KT CAVOK 22/20 Q1015
 
LIVM - Point Marina/Rav, Italy
Distanza dalla stazione: NE 124km
Dati ricevuti: 18/07/2016 15:55
Non operativo
Sereno
Sereno
 Vento da SE
Vento: SE 11 km/h
Temperatura: 30°C
Indice di Calore: 33°C
P.to Rugiada: 22°C
Umidità: 62%
Barometro: 1018 hPa
Summary: Sereno
Visibilità: superiore a 10 km
2016/07/18 13:55 LIVM 181355Z 14006KT CAVOK 30/22 Q1018 RMK SKC QUK 1 QUL 0 VIS MAR 20 KM VIS MIN 9999
LIMP - Parma, Italy
Distanza dalla stazione: NNO 127km
Dati ricevuti: 30/05/2017 08:50
Sereno
Sereno
 Vento da O
Vento: O 7 km/h
Temperatura: 23°C
P.to Rugiada: 14°C
Umidità: 57%
Barometro: 1016 hPa
Summary: Sereno
Visibilità: superiore a 10 km
2017/05/30 06:50 LIMP 300650Z 27004KT CAVOK 23/14 Q1016
 
LIPR - Rimini (civ/It-A, Italy
Distanza dalla stazione: ENE 129km
Dati ricevuti: 30/05/2017 08:45
Sereno
Sereno
 Vento da NE
Vento: NE 2 km/h
Temperatura: 23°C
P.to Rugiada: 19°C
Umidità: 78%
Barometro: 1015 hPa
Summary: Sereno
Visibilità: superiore a 10 km
2017/05/30 06:45 LIPR 300645Z 04001KT CAVOK 23/19 Q1015
LIRX - Monte Calamita, Italy
Distanza dalla stazione: SSO 130km
Dati ricevuti: 30/05/2017 08:55
Nubi sparse
Nubi sparse
 Vento da S
Vento: S 4 km/h
Temperatura: 18°C
P.to Rugiada: 17°C
Umidità: 94%
Barometro: 1016 hPa
Nuvole: Nubi sparse
Visibilità: 10 km
Dettaglio nuvole: Nubi sparse 30 m
2017/05/30 06:55 LIRX 300655Z 18002KT 9999 FEW001 18/17 Q1016 RMK FEW VIS MIN 9999 VIS MAR 20 KM
 
LIVF - Frontone, Italy
Distanza dalla stazione: ESE 140km
Dati ricevuti: 29/05/2017 12:55
Non operativo
Sereno
Sereno
 Vento da NNE
Vento: NNE 6 km/h
Temperatura: 26°C
P.to Rugiada: 7°C
Umidità: 30%
Barometro: 1019 hPa
Summary: Sereno
Visibilità: superiore a 10 km
2017/05/29 10:55 LIVF 291055Z 02003KT CAVOK 26/07 Q1019
LIRZ - Perugia, Italy
Distanza dalla stazione: SE 144km
Dati ricevuti: 30/05/2017 08:50
Sereno
Sereno
 Vento da Variabile
Vento: Variabile 2 km/h
Temperatura: 19°C
P.to Rugiada: 11°C
Umidità: 60%
Barometro: 1018 hPa
Summary: Sereno
Visibilità: superiore a 10 km
2017/05/30 06:50 LIRZ 300650Z VRB01KT CAVOK 19/11 Q1018
 
LIQO - Mount Argentario, Italy
Distanza dalla stazione: S 160km
Dati ricevuti: 29/05/2017 19:55
Non operativo
Sereno
Sereno
 Vento da S
Vento: S 6 km/h
Temperatura: 23°C
P.to Rugiada: 6°C
Umidità: 33%
Barometro: 1018 hPa
Summary: Sereno
Visibilità: superiore a 10 km
2017/05/29 17:55 LIQO 291755Z 18003KT CAVOK 23/06 Q1018 RMK FEW FEW200 VAL CLD SCT NC VIS MIN 9999
LIMS - Piacenza (it-Afb, Italy
Distanza dalla stazione: NO 162km
Dati ricevuti: 30/05/2017 08:55
Sereno
Sereno
 Vento da O
Vento: O 7 km/h
Temperatura: 25°C
P.to Rugiada: 15°C
Umidità: 54%
Barometro: 1015 hPa
Summary: Sereno
Visibilità: superiore a 10 km
2017/05/30 06:55 LIMS 300655Z 27004KT CAVOK 25/15 Q1015
 
LIPX - Villafranca(Cv/M, Italy
Distanza dalla stazione: N 176km
Dati ricevuti: 30/05/2017 08:50
Sereno
Sereno
 Vento da SSO
Vento: SSO 6 km/h
Temperatura: 23°C
P.to Rugiada: 14°C
Umidità: 57%
Barometro: 1016 hPa
Summary: Sereno
Visibilità: superiore a 10 km
2017/05/30 06:50 LIPX 300650Z 20003KT 150V250 CAVOK 23/14 Q1016
LIRV - Viterbo (it-Mil), Italy
Distanza dalla stazione: SSE 176km
Dati ricevuti: 30/05/2017 08:55
Sereno
Sereno
 Vento da N
Vento: N 4 km/h
Temperatura: 20°C
P.to Rugiada: 14°C
Umidità: 69%
Barometro: 1018 hPa
Summary: Sereno
Visibilità: superiore a 10 km
2017/05/30 06:55 LIRV 300655Z 36002KT CAVOK 20/14 Q1018
 
LIPO - Brescia/Montichi, Italy
Distanza dalla stazione: NNO 187km
Dati ricevuti: 30/05/2017 07:50
Non operativo
Parz. nuvoloso
Parz. nuvoloso
 Vento da OSO
Vento: OSO 2 km/h
Temperatura: 22°C
P.to Rugiada: 15°C
Umidità: 65%
Barometro: 1015 hPa
Nuvole: Parz. nuvoloso
Visibilità: 8 km
2017/05/30 05:50 LIPO 300550Z 24001KT 8000 NSC 22/15 Q1015
LIMJ - Genova/Sestri, Italy
Distanza dalla stazione: ONO 188km
Dati ricevuti: 30/05/2017 08:50
Parz. nuvoloso
Parz. nuvoloso
 Vento da SE
Vento: SE 7 km/h
Temperatura: 22°C
P.to Rugiada: 18°C
Umidità: 78%
Barometro: 1017 hPa
Nuvole: Parz. nuvoloso
Visibilità: 10 km
Dettaglio nuvole: Parz. nuvoloso 549 m
2017/05/30 06:50 LIMJ 300650Z 13004KT 090V170 9999 SCT018 22/18 Q1017
 
LIPL - Ghedi (it-Afb), Italy
Distanza dalla stazione: NNO 189km
Dati ricevuti: 30/05/2017 08:55
Sereno
Sereno
 Vento da Variabile
Vento: Variabile 0 km/h
Temperatura: 23°C
P.to Rugiada: 18°C
Umidità: 74%
Barometro: 1015 hPa
Summary: Sereno
Visibilità: superiore a 10 km
2017/05/30 06:55 LIPL 300655Z /////KT CAVOK 23/18 Q1015 RMK SKC VIS MIN 9999 WIND THR31 00000KT BLU
LIPY - Falconara (it-Af, Italy
Distanza dalla stazione: E 189km
Dati ricevuti: 30/05/2017 08:50
Sereno
Sereno
 Vento da Variabile
Vento: Variabile 4 km/h
Temperatura: 25°C
P.to Rugiada: 12°C
Umidità: 44%
Barometro: 1015 hPa
Summary: Sereno
Visibilità: superiore a 10 km
2017/05/30 06:50 LIPY 300650Z VRB02KT CAVOK 25/12 Q1015
 
LFKB - Bastia/Poretta, France
Distanza dalla stazione: SO 190km
Dati ricevuti: 30/05/2017 09:00
Sereno
Sereno
 Vento da S
Vento: S 6 km/h
Temperatura: 24°C
P.to Rugiada: 12°C
Umidità: 47%
Barometro: 1017 hPa
Summary: Sereno
Visibilità: superiore a 10 km
2017/05/30 07:00 LFKB 300700Z 18003KT 140V220 CAVOK 24/12 Q1017 NOSIG
LIMV - Giovi Pass, Italy
Distanza dalla stazione: ONO 191km
Dati ricevuti: 29/05/2017 12:55
Non operativo
Sereno
Sereno
 Vento da Variabile
Vento: Variabile 0 km/h
Temperatura: 24°C
P.to Rugiada: 12°C
Umidità: 47%
Barometro: 1019 hPa
Summary: Sereno
Visibilità: superiore a 10 km
2017/05/29 10:55 LIMV 291055Z /////KT CAVOK 24/12 Q1019